Time;durP1;ratioP1;P1;durP2;ratioP2;P2;SDS_P1;SDS_P2;PMS_P1;PMS_P2;Temp;Humidity;BMP_temperature;BMP_pressure;BME280_temperature;BME280_humidity;BME280_pressure;Samples;Min_cycle;Max_cycle;Signal;HPM_P1;HPM_P2
2022/09/26 00:01:50;;;;;;;3.75;0.30;;;11.20;99.90;;;;;;5086032;28;20040;-64
2022/09/26 00:04:22;;;;;;;3.17;0.38;;;11.20;99.90;;;;;;5084583;28;20509;-64
2022/09/26 00:06:49;;;;;;;1.58;0.30;;;11.10;99.90;;;;;;5085392;28;20190;-65
2022/09/26 00:09:16;;;;;;;3.25;0.30;;;11.10;99.90;;;;;;5085582;28;20042;-64
2022/09/26 00:11:43;;;;;;;4.13;0.60;;;11.00;99.90;;;;;;5085044;28;20453;-64
2022/09/26 00:14:14;;;;;;;5.40;0.28;;;11.00;99.90;;;;;;5083756;28;20040;-65
2022/09/26 00:16:40;;;;;;;6.30;0.40;;;11.10;99.90;;;;;;5066791;28;20040;-63
2022/09/26 00:19:07;;;;;;;4.25;0.20;;;11.10;99.90;;;;;;5083883;28;20051;-64
2022/09/26 00:21:33;;;;;;;4.32;0.30;;;11.00;99.90;;;;;;5084073;28;20097;-64
2022/09/26 00:24:00;;;;;;;4.15;0.30;;;11.00;99.90;;;;;;5066509;28;20047;-66
2022/09/26 00:26:28;;;;;;;5.00;0.40;;;11.00;99.90;;;;;;5084708;28;20478;-64
2022/09/26 00:28:54;;;;;;;5.70;0.40;;;11.00;99.90;;;;;;5069670;28;20039;-64
2022/09/26 00:31:24;;;;;;;4.90;0.45;;;11.10;99.90;;;;;;5088968;28;20044;-65
2022/09/26 00:33:50;;;;;;;3.85;0.50;;;11.00;99.90;;;;;;5087898;28;20075;-65
2022/09/26 00:36:16;;;;;;;6.00;0.45;;;11.20;99.90;;;;;;5070859;28;20137;-64
2022/09/26 00:38:41;;;;;;;4.50;0.50;;;11.20;99.90;;;;;;5070409;28;20516;-65
2022/09/26 00:41:07;;;;;;;3.92;0.50;;;11.10;99.90;;;;;;5087836;28;20059;-64
2022/09/26 00:43:39;;;;;;;5.72;0.32;;;11.20;99.90;;;;;;5087079;28;20196;-65
2022/09/26 00:46:17;;;;;;;4.10;0.40;;;11.20;99.90;;;;;;5104285;28;20076;-64
2022/09/26 00:48:45;;;;;;;4.13;0.40;;;11.30;99.90;;;;;;5087601;28;20028;-65
2022/09/26 00:51:11;;;;;;;4.65;0.50;;;11.20;99.90;;;;;;5087226;28;20027;-66
2022/09/26 00:53:42;;;;;;;5.38;0.35;;;11.30;99.90;;;;;;5087292;28;20040;-64
2022/09/26 00:56:14;;;;;;;5.43;0.47;;;11.30;99.90;;;;;;5085764;28;20107;-65
2022/09/26 00:58:55;;;;;;;3.65;0.52;;;11.20;99.90;;;;;;5087152;28;20135;-64
2022/09/26 01:01:21;;;;;;;4.00;0.45;;;11.20;99.90;;;;;;5085885;28;20044;-64
2022/09/26 01:03:49;;;;;;;4.03;0.50;;;11.30;99.90;;;;;;5086982;28;20040;-65
2022/09/26 01:06:16;;;;;;;3.90;0.50;;;11.10;99.90;;;;;;5087311;28;20043;-66
2022/09/26 01:08:48;;;;;;;3.30;0.63;;;11.10;99.90;;;;;;5058854;28;20032;-64
2022/09/26 01:11:14;;;;;;;4.57;0.52;;;11.00;99.90;;;;;;5070035;28;20050;-65
2022/09/26 01:13:42;;;;;;;4.85;1.05;;;11.10;99.90;;;;;;5087515;28;20123;-64
2022/09/26 01:16:07;;;;;;;3.90;0.70;;;11.10;99.90;;;;;;5087432;28;20162;-64
2022/09/26 01:18:34;;;;;;;3.55;0.60;;;11.10;99.90;;;;;;5087119;28;20123;-64
2022/09/26 01:21:41;;;;;;;4.10;0.82;;;11.10;99.90;;;;;;5086994;28;20359;-65
2022/09/26 01:24:31;;;;;;;4.03;0.80;;;11.00;99.90;;;;;;5086403;28;20036;-67
2022/09/26 01:27:06;;;;;;;6.95;0.90;;;11.00;99.90;;;;;;5087145;28;20169;-65
2022/09/26 01:29:52;;;;;;;4.78;1.25;;;11.00;99.90;;;;;;5069600;28;20499;-64
2022/09/26 01:35:38;;;;;;;4.82;0.90;;;11.10;99.90;;;;;;5103429;28;20147;-65
2022/09/26 01:38:27;;;;;;;4.05;0.82;;;11.00;99.90;;;;;;5069079;28;20124;-64
2022/09/26 01:41:33;;;;;;;4.25;1.10;;;11.10;99.90;;;;;;5085719;28;20129;-64
2022/09/26 01:44:14;;;;;;;3.97;0.90;;;11.10;99.90;;;;;;5086548;28;20040;-65
2022/09/26 01:47:06;;;;;;;3.20;0.70;;;11.00;99.90;;;;;;5086163;28;20051;-64
2022/09/26 01:49:51;;;;;;;5.97;1.42;;;11.10;99.90;;;;;;5085704;28;20717;-64
2022/09/26 01:52:22;;;;;;;3.33;0.75;;;10.90;99.90;;;;;;5086023;28;20063;-64
2022/09/26 01:55:08;;;;;;;3.30;0.60;;;10.90;99.90;;;;;;5082076;28;20622;-65
2022/09/26 01:57:43;;;;;;;5.47;1.10;;;11.00;99.90;;;;;;5077984;28;20234;-66
2022/09/26 02:00:13;;;;;;;4.25;1.17;;;11.10;99.90;;;;;;5077984;28;20044;-65
2022/09/26 02:02:43;;;;;;;4.28;0.80;;;10.90;99.90;;;;;;5078463;28;20122;-65
2022/09/26 02:05:18;;;;;;;5.95;0.95;;;11.10;99.90;;;;;;5078018;28;20052;-65
2022/09/26 02:08:08;;;;;;;6.63;1.17;;;11.00;99.90;;;;;;5077536;28;20046;-65
2022/09/26 02:10:39;;;;;;;9.50;1.10;;;11.10;99.90;;;;;;5077377;28;20565;-66
2022/09/26 02:13:16;;;;;;;4.35;0.98;;;10.90;99.90;;;;;;5077614;28;20914;-65
2022/09/26 02:15:46;;;;;;;3.78;0.75;;;11.00;99.90;;;;;;5077274;28;20051;-65
2022/09/26 02:18:22;;;;;;;4.22;0.90;;;11.00;99.90;;;;;;5078154;28;20043;-66
2022/09/26 02:20:56;;;;;;;8.40;1.00;;;11.10;99.90;;;;;;5077432;28;20083;-66
2022/09/26 02:23:22;;;;;;;5.28;0.80;;;11.00;99.90;;;;;;5077259;28;20127;-65
2022/09/26 02:25:48;;;;;;;6.60;1.00;;;11.00;99.90;;;;;;5077630;28;20047;-65
2022/09/26 02:28:14;;;;;;;4.65;0.85;;;11.10;99.90;;;;;;5061227;28;20052;-65
2022/09/26 02:30:44;;;;;;;4.03;1.10;;;11.10;99.90;;;;;;5079331;28;20113;-66
2022/09/26 02:33:10;;;;;;;4.93;1.40;;;11.10;99.90;;;;;;5077454;28;20059;-66
2022/09/26 02:35:54;;;;;;;3.75;1.10;;;11.10;99.90;;;;;;5076806;28;20060;-64
2022/09/26 02:38:27;;;;;;;8.00;1.27;;;11.10;99.90;;;;;;5077113;28;20055;-66
2022/09/26 02:41:09;;;;;;;8.15;1.23;;;11.00;99.90;;;;;;5076577;28;20043;-66
2022/09/26 02:43:56;;;;;;;4.72;1.15;;;11.00;99.90;;;;;;5076773;28;20078;-65
2022/09/26 02:46:25;;;;;;;6.20;1.23;;;11.00;99.90;;;;;;5077777;28;20386;-66
2022/09/26 02:49:05;;;;;;;6.03;1.10;;;10.80;99.90;;;;;;5077295;28;20156;-65
2022/09/26 02:51:53;;;;;;;6.88;1.27;;;11.00;99.90;;;;;;5076368;28;20062;-67
2022/09/26 02:54:34;;;;;;;7.20;1.42;;;11.00;99.90;;;;;;5076542;28;20052;-67
2022/09/26 02:57:51;;;;;;;10.10;1.52;;;10.80;99.90;;;;;;5077024;28;20390;-66
2022/09/26 03:00:30;;;;;;;6.00;1.52;;;10.80;99.90;;;;;;5051150;28;20399;-67
2022/09/26 03:03:02;;;;;;;8.65;2.13;;;10.90;99.90;;;;;;5076675;28;20036;-66
2022/09/26 03:05:30;;;;;;;7.28;1.90;;;10.70;99.90;;;;;;5060293;28;20044;-66
2022/09/26 03:08:03;;;;;;;6.70;1.80;;;10.60;99.90;;;;;;5077351;28;20382;-65
2022/09/26 03:10:30;;;;;;;;;;;10.60;99.90;;;;;;5078030;28;20048;-65
2022/09/26 03:13:02;;;;;;;10.35;2.08;;;10.80;99.90;;;;;;5077084;28;19927;-64
2022/09/26 03:15:29;;;;;;;6.65;2.08;;;10.70;99.90;;;;;;5060179;28;20082;-65
2022/09/26 03:17:57;;;;;;;6.35;2.50;;;10.60;99.90;;;;;;5076785;28;20772;-65
2022/09/26 03:20:24;;;;;;;7.03;2.58;;;10.80;99.90;;;;;;5076711;28;20054;-65
2022/09/26 03:22:50;;;;;;;7.85;2.88;;;10.50;99.90;;;;;;5076710;28;20044;-65
2022/09/26 03:25:20;;;;;;;8.60;3.53;;;10.60;99.90;;;;;;5077818;28;20040;-65
2022/09/26 03:27:46;;;;;;;10.45;3.17;;;10.50;99.90;;;;;;5076763;28;20044;-65
2022/09/26 03:30:14;;;;;;;9.48;3.00;;;10.50;99.90;;;;;;5058818;28;20040;-65
2022/09/26 03:32:39;;;;;;;8.45;3.08;;;10.60;99.90;;;;;;5076450;28;20075;-65
2022/09/26 03:35:07;;;;;;;5.03;2.60;;;10.50;99.90;;;;;;5058610;28;20213;-65
2022/09/26 03:37:36;;;;;;;8.63;3.00;;;10.70;99.90;;;;;;5076304;28;20142;-65
2022/09/26 03:40:08;;;;;;;11.88;3.55;;;10.60;99.90;;;;;;5076312;28;20078;-65
2022/09/26 03:42:35;;;;;;;9.02;3.33;;;10.70;99.90;;;;;;5076599;28;20123;-65
2022/09/26 03:45:02;;;;;;;7.28;3.47;;;10.50;99.90;;;;;;5076981;28;20036;-65
2022/09/26 03:47:28;;;;;;;8.15;3.55;;;10.60;99.90;;;;;;5076329;28;20512;-66
2022/09/26 03:49:54;;;;;;;10.23;4.25;;;10.50;99.90;;;;;;5059378;28;20109;-65
2022/09/26 03:52:20;;;;;;;8.05;4.40;;;10.60;99.90;;;;;;5058641;28;20212;-65
2022/09/26 03:54:46;;;;;;;8.98;3.80;;;10.50;99.90;;;;;;5076246;28;20493;-64
2022/09/26 03:57:16;;;;;;;11.77;5.00;;;10.70;99.90;;;;;;5076417;28;20096;-66
2022/09/26 03:59:42;;;;;;;9.65;4.00;;;10.50;99.90;;;;;;5075774;28;20048;-66
2022/09/26 04:02:07;;;;;;;9.82;4.45;;;10.60;99.90;;;;;;5077331;28;20042;-65
2022/09/26 04:04:33;;;;;;;8.15;4.60;;;10.60;99.90;;;;;;5080034;28;20539;-66
2022/09/26 04:06:59;;;;;;;11.43;5.50;;;10.40;99.90;;;;;;5063475;28;20075;-66
2022/09/26 04:09:25;;;;;;;12.15;5.50;;;10.60;99.90;;;;;;5080759;28;20055;-66
2022/09/26 04:11:52;;;;;;;10.05;5.13;;;10.50;99.90;;;;;;5097090;28;20140;-66
2022/09/26 04:14:18;;;;;;;10.45;5.35;;;10.50;99.90;;;;;;5079993;28;20138;-66
2022/09/26 04:16:45;;;;;;;10.80;5.53;;;10.40;99.90;;;;;;5080552;28;20040;-64
2022/09/26 04:19:11;;;;;;;11.32;5.40;;;10.40;99.90;;;;;;5079790;28;20050;-67
2022/09/26 04:21:38;;;;;;;12.43;6.28;;;10.40;99.90;;;;;;5062556;28;20093;-65
2022/09/26 04:24:12;;;;;;;7.57;5.68;;;10.50;99.90;;;;;;5080327;28;20036;-65
2022/09/26 04:26:38;;;;;;;;;;;10.60;99.90;;;;;;5063993;28;20040;-66
2022/09/26 04:29:04;;;;;;;12.88;6.53;;;10.50;99.90;;;;;;5080154;28;19920;-66
2022/09/26 04:31:34;;;;;;;9.50;5.50;;;10.40;99.90;;;;;;5062064;28;20044;-66
2022/09/26 04:34:02;;;;;;;10.32;5.40;;;10.60;99.90;;;;;;5079831;28;20051;-65
2022/09/26 04:36:27;;;;;;;9.80;6.40;;;10.50;99.90;;;;;;5080360;28;20048;-66
2022/09/26 04:38:53;;;;;;;12.55;8.00;;;10.50;99.90;;;;;;5063084;28;20105;-65
2022/09/26 04:41:20;;;;;;;9.50;6.18;;;10.40;99.90;;;;;;5062399;28;20043;-66
2022/09/26 04:43:46;;;;;;;14.18;6.88;;;10.70;99.90;;;;;;5062546;28;20044;-65
2022/09/26 04:46:23;;;;;;;10.07;6.90;;;10.50;99.90;;;;;;5078937;28;20672;-66
2022/09/26 04:48:51;;;;;;;11.07;7.47;;;10.50;99.90;;;;;;5062800;28;20231;-65
2022/09/26 04:51:18;;;;;;;11.80;7.22;;;10.50;99.90;;;;;;5080920;28;20264;-66
2022/09/26 04:53:44;;;;;;;13.43;7.40;;;10.50;99.90;;;;;;5062540;28;20040;-65
2022/09/26 04:56:12;;;;;;;9.20;7.43;;;10.50;99.90;;;;;;5062282;28;20048;-65
2022/09/26 04:58:40;;;;;;;9.48;6.60;;;10.70;99.90;;;;;;5079846;28;20124;-65
2022/09/26 05:01:18;;;;;;;8.60;7.18;;;10.60;99.90;;;;;;5062428;28;20090;-65
2022/09/26 05:03:44;;;;;;;11.73;6.57;;;10.50;99.90;;;;;;5062876;28;20466;-65
2022/09/26 05:06:14;;;;;;;9.43;6.50;;;10.50;99.90;;;;;;5078990;28;20556;-66
2022/09/26 05:08:44;;;;;;;9.10;6.65;;;10.70;99.90;;;;;;5059457;28;20040;-66
2022/09/26 05:11:10;;;;;;;8.85;7.03;;;10.60;99.90;;;;;;5078607;28;20043;-65
2022/09/26 05:13:37;;;;;;;10.70;7.10;;;10.60;99.90;;;;;;5077869;28;20047;-66
2022/09/26 05:16:04;;;;;;;9.98;7.47;;;10.60;99.90;;;;;;5078680;28;20599;-65
2022/09/26 05:18:30;;;;;;;11.50;6.63;;;10.60;99.90;;;;;;5061743;28;20082;-66
2022/09/26 05:20:57;;;;;;;8.77;5.97;;;10.60;99.90;;;;;;5079106;28;20163;-66
2022/09/26 05:26:25;;;;;;;9.57;6.90;;;10.60;99.90;;;;;;5078377;28;20051;-66
2022/09/26 05:28:53;;;;;;;9.65;6.05;;;10.60;99.90;;;;;;5077233;28;20357;-67
2022/09/26 05:31:19;;;;;;;7.90;6.15;;;10.40;99.90;;;;;;5077229;28;20093;-65
2022/09/26 05:33:45;;;;;;;10.90;6.78;;;10.60;99.90;;;;;;5078833;28;20039;-66
2022/09/26 05:36:12;;;;;;;12.20;6.30;;;10.60;99.90;;;;;;5049382;28;20056;-66
2022/09/26 05:38:38;;;;;;;9.30;6.93;;;10.40;99.90;;;;;;5061460;28;20127;-66
2022/09/26 05:41:04;;;;;;;9.70;6.20;;;10.40;99.90;;;;;;5077534;28;20105;-66
2022/09/26 05:43:32;;;;;;;10.45;6.85;;;10.60;99.90;;;;;;5079616;28;20035;-67
2022/09/26 05:46:06;;;;;;;10.02;6.53;;;10.60;99.90;;;;;;5079572;28;20040;-65
2022/09/26 05:48:34;;;;;;;10.32;6.97;;;10.60;99.90;;;;;;5079134;28;20497;-66
2022/09/26 05:51:14;;;;;;;6.88;6.03;;;10.60;99.90;;;;;;5079211;28;20528;-66
2022/09/26 05:53:42;;;;;;;9.70;6.40;;;10.40;99.90;;;;;;5078908;28;20044;-65
2022/09/26 05:56:09;;;;;;;10.75;6.95;;;10.60;99.90;;;;;;5078711;28;20072;-65
2022/09/26 05:58:36;;;;;;;11.32;7.90;;;10.60;99.90;;;;;;5079878;28;20147;-66
2022/09/26 06:01:05;;;;;;;12.77;8.93;;;10.60;99.90;;;;;;5079000;28;20044;-66
2022/09/26 06:03:34;;;;;;;10.75;8.60;;;10.40;99.90;;;;;;5078281;28;20040;-65
2022/09/26 06:06:07;;;;;;;12.50;8.23;;;10.30;99.90;;;;;;5079086;28;20301;-64
2022/09/26 06:08:35;;;;;;;13.65;8.30;;;10.30;99.90;;;;;;5078332;28;20090;-66
2022/09/26 06:11:06;;;;;;;9.98;7.95;;;10.50;99.90;;;;;;5062037;28;20044;-65
2022/09/26 06:13:33;;;;;;;10.52;7.65;;;10.50;99.90;;;;;;5078988;28;20056;-65
2022/09/26 06:16:05;;;;;;;13.68;9.32;;;10.60;99.90;;;;;;5079750;28;20032;-65
2022/09/26 06:18:35;;;;;;;13.65;8.80;;;10.60;99.90;;;;;;5063316;28;20496;-65
2022/09/26 06:21:06;;;;;;;12.77;7.50;;;10.50;99.90;;;;;;5062611;28;20062;-66
2022/09/26 06:23:35;;;;;;;8.98;8.07;;;10.50;99.90;;;;;;5062204;28;20174;-66
2022/09/26 06:26:03;;;;;;;15.07;8.40;;;10.60;99.90;;;;;;5077696;28;20115;-66
2022/09/26 06:28:29;;;;;;;12.02;9.20;;;10.50;99.90;;;;;;5079393;28;20051;-66
2022/09/26 06:30:56;;;;;;;10.60;8.32;;;10.60;99.90;;;;;;5079771;28;20497;-66
2022/09/26 06:33:22;;;;;;;12.80;9.73;;;10.40;99.90;;;;;;5062176;28;20497;-65
2022/09/26 06:36:01;;;;;;;9.50;7.78;;;10.40;99.90;;;;;;5078240;28;20529;-66
2022/09/26 06:38:27;;;;;;;11.18;8.70;;;10.60;99.90;;;;;;5061464;28;20056;-66
2022/09/26 06:40:53;;;;;;;12.77;8.75;;;10.60;99.90;;;;;;5061447;28;20508;-66
2022/09/26 06:43:19;;;;;;;11.07;8.52;;;10.50;99.90;;;;;;5044295;28;20436;-65
2022/09/26 06:45:47;;;;;;;8.77;6.60;;;10.40;99.90;;;;;;5078435;28;20500;-66
2022/09/26 06:48:16;;;;;;;13.55;8.65;;;10.60;99.90;;;;;;5078103;28;20044;-66
2022/09/26 06:50:42;;;;;;;11.60;7.60;;;10.30;99.90;;;;;;5078194;28;20514;-66
2022/09/26 06:53:08;;;;;;;13.27;8.95;;;10.50;99.90;;;;;;5077902;28;20055;-65
2022/09/26 06:55:34;;;;;;;11.45;8.57;;;10.50;99.90;;;;;;5079157;28;20439;-65
2022/09/26 06:57:59;;;;;;;12.45;7.78;;;10.60;99.90;;;;;;5062357;28;20050;-66
2022/09/26 07:00:26;;;;;;;8.82;7.38;;;10.60;99.90;;;;;;5045933;28;20085;-65
2022/09/26 07:02:54;;;;;;;10.93;7.82;;;10.40;99.90;;;;;;5076888;28;20032;-66
2022/09/26 07:05:21;;;;;;;13.63;7.78;;;10.40;99.90;;;;;;5061239;28;20492;-66
2022/09/26 07:07:47;;;;;;;14.00;8.60;;;10.50;99.90;;;;;;5077529;28;20036;-66
2022/09/26 07:10:15;;;;;;;11.27;7.35;;;10.40;99.90;;;;;;5059925;28;20044;-65
2022/09/26 07:12:46;;;;;;;11.32;7.63;;;10.30;99.90;;;;;;5061252;28;20563;-65
2022/09/26 07:15:17;;;;;;;10.80;6.82;;;10.30;99.90;;;;;;5076907;28;20118;-65
2022/09/26 07:17:45;;;;;;;10.48;7.25;;;10.50;99.90;;;;;;5077695;28;20280;-66
2022/09/26 07:20:13;;;;;;;9.27;6.63;;;10.40;99.90;;;;;;5077154;28;20126;-65
2022/09/26 07:22:38;;;;;;;9.80;7.35;;;10.30;99.90;;;;;;5077036;28;20749;-65
2022/09/26 07:25:05;;;;;;;9.95;7.43;;;10.40;99.90;;;;;;5059909;28;20058;-66
2022/09/26 07:27:31;;;;;;;10.82;7.60;;;10.40;99.90;;;;;;5060595;28;20043;-65
2022/09/26 07:29:57;;;;;;;11.85;7.22;;;10.40;99.90;;;;;;5077844;28;20047;-65
2022/09/26 07:32:24;;;;;;;12.55;7.38;;;10.40;99.90;;;;;;5076404;28;20040;-66
2022/09/26 07:34:51;;;;;;;8.60;6.53;;;10.50;99.90;;;;;;5076391;28;20321;-65
2022/09/26 07:37:16;;;;;;;9.48;6.70;;;10.40;99.90;;;;;;5060213;28;20126;-65
2022/09/26 07:39:42;;;;;;;12.88;7.80;;;10.40;99.90;;;;;;5043259;28;20032;-65
2022/09/26 07:42:08;;;;;;;8.98;6.28;;;10.60;99.90;;;;;;5076741;28;20455;-65
2022/09/26 07:44:34;;;;;;;9.07;6.10;;;10.60;99.90;;;;;;5076721;28;20036;-65
2022/09/26 07:52:29;;;;;;;10.95;6.60;;;10.80;99.90;;;;;;5010778;28;20121;-65
2022/09/26 07:54:55;;;;;;;9.05;5.53;;;11.10;99.90;;;;;;5059161;28;20036;-65
2022/09/26 07:57:21;;;;;;;8.48;5.50;;;10.80;99.90;;;;;;5076351;28;20519;-65
2022/09/26 07:59:49;;;;;;;8.25;5.38;;;11.00;99.90;;;;;;5057698;28;20643;-66
2022/09/26 08:02:34;;;;;;;8.55;5.28;;;10.90;99.90;;;;;;5059742;28;20042;-66
2022/09/26 08:05:02;;;;;;;6.30;4.32;;;11.10;99.90;;;;;;5076401;28;20670;-66
2022/09/26 08:07:28;;;;;;;7.28;4.15;;;10.80;99.90;;;;;;5059290;28;20058;-65
2022/09/26 08:09:55;;;;;;;8.02;4.72;;;10.80;99.90;;;;;;5077102;28;20028;-66
2022/09/26 08:12:21;;;;;;;6.60;4.38;;;10.90;99.90;;;;;;5058315;28;20524;-65
2022/09/26 08:14:48;;;;;;;5.82;5.25;;;11.00;99.90;;;;;;5076807;28;20040;-66
2022/09/26 08:17:20;;;;;;;7.70;4.32;;;10.80;99.90;;;;;;5042964;28;20040;-66
2022/09/26 08:19:47;;;;;;;8.98;4.03;;;10.80;99.90;;;;;;5069581;28;20040;-65
2022/09/26 08:22:13;;;;;;;8.02;4.78;;;10.90;99.90;;;;;;5074568;28;20446;-66
2022/09/26 08:24:39;;;;;;;7.47;4.43;;;11.10;99.90;;;;;;5074669;28;20058;-66
2022/09/26 08:27:05;;;;;;;7.40;4.88;;;10.90;99.90;;;;;;5076106;28;20040;-66
2022/09/26 08:29:31;;;;;;;8.52;4.07;;;10.90;99.90;;;;;;5075339;28;20062;-65
2022/09/26 08:31:57;;;;;;;8.20;3.88;;;11.00;99.90;;;;;;5076215;28;20457;-66
2022/09/26 08:34:23;;;;;;;6.28;4.50;;;11.00;99.90;;;;;;5075430;28;20490;-65
2022/09/26 08:36:53;;;;;;;6.45;4.00;;;11.10;99.90;;;;;;5046580;28;20063;-67
2022/09/26 08:39:22;;;;;;;8.57;4.22;;;11.20;99.90;;;;;;5059343;28;20055;-65
2022/09/26 08:42:12;;;;;;;7.22;3.20;;;11.10;99.90;;;;;;5031395;28;20051;-66
2022/09/26 08:44:51;;;;;;;7.35;4.00;;;11.00;99.90;;;;;;5077909;28;20421;-67
2022/09/26 08:47:28;;;;;;;5.53;3.15;;;11.00;99.90;;;;;;5077502;28;20071;-66
2022/09/26 08:50:08;;;;;;;5.90;3.55;;;11.00;99.90;;;;;;5061763;28;20043;-65
2022/09/26 08:52:41;;;;;;;5.35;2.60;;;11.00;99.90;;;;;;5081882;28;20036;-65
2022/09/26 08:55:15;;;;;;;7.63;2.83;;;11.00;99.90;;;;;;5080179;28;20446;-66
2022/09/26 08:57:41;;;;;;;6.53;3.00;;;11.10;99.90;;;;;;5080326;28;20048;-66
2022/09/26 09:00:23;;;;;;;7.97;2.88;;;11.30;99.90;;;;;;5078807;28;20048;-66
2022/09/26 09:03:19;;;;;;;5.43;3.17;;;11.20;99.90;;;;;;5079856;28;20043;-65
2022/09/26 09:05:51;;;;;;;5.68;3.15;;;11.30;99.90;;;;;;5078779;28;20478;-65
2022/09/26 09:08:37;;;;;;;8.75;3.10;;;11.30;99.90;;;;;;5078608;28;20039;-65
2022/09/26 09:11:31;;;;;;;6.03;2.75;;;11.40;99.90;;;;;;5062001;28;20039;-65
2022/09/26 09:14:36;;;;;;;5.18;2.30;;;11.40;99.90;;;;;;5078331;28;20047;-66
2022/09/26 09:17:29;;;;;;;6.07;2.85;;;11.40;99.90;;;;;;5061839;28;20444;-64
2022/09/26 09:19:55;;;;;;;7.60;2.67;;;11.50;99.90;;;;;;5077507;28;20154;-67
2022/09/26 09:22:21;;;;;;;5.45;2.45;;;11.50;99.90;;;;;;5060639;28;20282;-67
2022/09/26 09:24:54;;;;;;;6.05;3.08;;;11.60;99.90;;;;;;5059824;28;20040;-65
2022/09/26 09:28:11;;;;;;;7.75;2.97;;;11.40;99.90;;;;;;5060603;28;20046;-66
2022/09/26 09:30:49;;;;;;;7.93;3.22;;;11.40;99.90;;;;;;4985864;28;20416;-66
2022/09/26 09:33:36;;;;;;;7.13;3.20;;;11.20;99.90;;;;;;5057549;28;20085;-65
2022/09/26 09:36:15;;;;;;;7.55;3.20;;;11.30;99.90;;;;;;5077095;28;20143;-65
2022/09/26 09:38:48;;;;;;;5.65;3.22;;;11.40;99.90;;;;;;5077918;28;20052;-67
2022/09/26 09:41:28;;;;;;;6.85;3.40;;;11.20;99.90;;;;;;5061015;28;20456;-65
2022/09/26 09:43:57;;;;;;;9.90;4.25;;;11.30;99.90;;;;;;5078310;28;20061;-65
2022/09/26 09:46:31;;;;;;;6.20;3.53;;;11.40;99.90;;;;;;5059478;28;20318;-66
2022/09/26 09:49:08;;;;;;;10.15;3.92;;;11.30;99.90;;;;;;5076577;28;20055;-66
2022/09/26 09:51:50;;;;;;;5.80;3.53;;;11.20;99.90;;;;;;5078455;28;20151;-65
2022/09/26 09:54:47;;;;;;;9.43;4.13;;;11.40;99.90;;;;;;5079253;28;20109;-65
2022/09/26 09:57:19;;;;;;;6.55;3.85;;;11.20;99.90;;;;;;5079128;28;20047;-65
2022/09/26 10:00:00;;;;;;;5.40;3.83;;;11.30;99.90;;;;;;5079201;28;20036;-67
2022/09/26 10:02:45;;;;;;;7.95;4.13;;;11.20;99.90;;;;;;5079249;28;20043;-66
2022/09/26 10:05:39;;;;;;;8.02;4.07;;;11.20;99.90;;;;;;5079701;28;20451;-67
2022/09/26 10:08:23;;;;;;;5.68;3.55;;;11.30;99.90;;;;;;5078695;28;20039;-66
2022/09/26 10:11:01;;;;;;;8.95;4.32;;;11.40;99.90;;;;;;5084616;28;20039;-65
2022/09/26 10:13:31;;;;;;;6.97;3.58;;;11.40;99.90;;;;;;5083591;28;20171;-68
2022/09/26 10:16:03;;;;;;;5.68;3.75;;;11.50;99.90;;;;;;5067826;28;20397;-67
2022/09/26 10:18:30;;;;;;;9.17;3.70;;;11.40;99.90;;;;;;5084215;28;20357;-68
2022/09/26 10:20:58;;;;;;;8.85;4.05;;;11.30;99.90;;;;;;5068149;28;20052;-65
2022/09/26 10:23:30;;;;;;;11.45;4.50;;;11.50;99.90;;;;;;5067229;28;20166;-65
2022/09/26 10:26:02;;;;;;;9.00;4.57;;;11.50;99.90;;;;;;5081239;28;20604;-68
2022/09/26 10:28:47;;;;;;;6.57;4.60;;;11.50;99.90;;;;;;5078954;28;20051;-66
2022/09/26 10:31:37;;;;;;;8.75;4.93;;;11.30;99.90;;;;;;5078005;28;20044;-68
2022/09/26 10:34:07;;;;;;;8.00;4.53;;;11.40;99.90;;;;;;5079042;28;20048;-67
2022/09/26 10:36:36;;;;;;;7.78;4.43;;;11.30;99.90;;;;;;5077585;28;20075;-67
2022/09/26 10:42:11;;;;;;;11.40;5.43;;;11.30;99.90;;;;;;5078923;28;20519;-67
2022/09/26 10:44:37;;;;;;;7.50;4.72;;;11.30;99.90;;;;;;5078749;28;20225;-65
2022/09/26 10:47:08;;;;;;;7.60;4.70;;;11.40;99.90;;;;;;5077789;28;20437;-67
2022/09/26 10:49:50;;;;;;;8.40;4.90;;;11.50;99.90;;;;;;5078740;28;20054;-66
2022/09/26 10:52:26;;;;;;;8.15;4.88;;;11.60;99.90;;;;;;5078349;28;20173;-67
2022/09/26 10:55:00;;;;;;;9.13;5.43;;;11.50;99.90;;;;;;5078307;28;20596;-66
2022/09/26 10:57:33;;;;;;;10.18;5.45;;;11.50;99.90;;;;;;5078493;28;20478;-66
2022/09/26 11:00:00;;;;;;;11.32;5.95;;;11.80;99.90;;;;;;5078316;28;20583;-67
2022/09/26 11:02:27;;;;;;;9.63;5.50;;;11.80;99.90;;;;;;5078404;28;20036;-66
2022/09/26 11:07:51;;;;;;;9.50;5.13;;;12.10;99.90;;;;;;5078153;28;20071;-65
2022/09/26 11:10:23;;;;;;;7.47;4.70;;;12.10;99.90;;;;;;5077911;28;20085;-66
2022/09/26 11:12:56;;;;;;;11.55;4.75;;;12.20;99.90;;;;;;5077536;28;20044;-65
2022/09/26 11:15:23;;;;;;;9.77;4.93;;;12.30;99.90;;;;;;5075981;28;20083;-66
2022/09/26 11:17:51;;;;;;;11.35;5.43;;;12.40;99.90;;;;;;5077517;28;20043;-66
2022/09/26 11:20:49;;;;;;;11.57;6.00;;;12.20;99.90;;;;;;5077841;28;20048;-67
2022/09/26 11:23:26;;;;;;;9.30;5.72;;;11.90;99.90;;;;;;5076265;28;20059;-66
2022/09/26 11:26:05;;;;;;;12.90;6.97;;;11.80;99.90;;;;;;5077999;28;20097;-65
2022/09/26 11:28:50;;;;;;;10.98;6.50;;;11.60;99.90;;;;;;5077601;28;20048;-65
2022/09/26 11:31:27;;;;;;;10.23;6.30;;;11.70;99.90;;;;;;5077676;28;20057;-65
2022/09/26 11:33:57;;;;;;;10.98;6.38;;;11.80;99.90;;;;;;5060375;28;20048;-66
2022/09/26 11:36:44;;;;;;;11.98;6.72;;;11.50;99.90;;;;;;5094267;28;20689;-66
2022/09/26 11:39:44;;;;;;;9.48;7.25;;;11.60;99.90;;;;;;5076386;28;20051;-68
2022/09/26 11:42:16;;;;;;;12.70;7.82;;;11.40;99.90;;;;;;5077484;28;20207;-66
2022/09/26 11:44:50;;;;;;;8.82;7.18;;;11.50;99.90;;;;;;5077370;28;20039;-67
2022/09/26 11:47:19;;;;;;;10.13;6.40;;;11.40;99.90;;;;;;5076509;28;20500;-67
2022/09/26 11:50:13;;;;;;;7.20;6.50;;;11.60;99.90;;;;;;5077482;28;20054;-67
2022/09/26 11:53:00;;;;;;;8.27;7.22;;;11.40;99.90;;;;;;5054323;28;20492;-68
2022/09/26 11:55:59;;;;;;;8.45;6.45;;;11.30;99.90;;;;;;5076575;28;20068;-66
2022/09/26 11:58:38;;;;;;;9.65;6.93;;;11.50;99.90;;;;;;5076594;28;20051;-66
2022/09/26 12:01:28;;;;;;;10.27;7.00;;;11.50;99.90;;;;;;5076515;28;20040;-66
2022/09/26 12:04:23;;;;;;;10.00;6.20;;;11.30;99.90;;;;;;5076297;28;20040;-67
2022/09/26 12:07:16;;;;;;;6.18;5.57;;;11.20;99.90;;;;;;5075961;28;20659;-67
2022/09/26 12:09:46;;;;;;;8.18;6.47;;;11.20;99.90;;;;;;5076735;28;20065;-67
2022/09/26 12:12:41;;;;;;;8.80;6.47;;;11.50;99.90;;;;;;5076930;28;20076;-67
2022/09/26 12:15:53;;;;;;;8.75;6.07;;;11.50;99.90;;;;;;5075512;28;20039;-66
2022/09/26 12:18:22;;;;;;;7.85;6.93;;;11.30;99.90;;;;;;5040439;28;20056;-67
2022/09/26 12:21:07;;;;;;;6.28;5.68;;;11.30;99.90;;;;;;5075847;28;20048;-66
2022/09/26 12:23:32;;;;;;;6.00;4.43;;;11.50;99.90;;;;;;5076473;28;20501;-66
2022/09/26 12:26:01;;;;;;;5.63;4.28;;;11.30;99.90;;;;;;5080757;28;20134;-65
2022/09/26 12:28:45;;;;;;;6.97;5.10;;;11.60;99.90;;;;;;5063275;28;20079;-67
2022/09/26 12:31:20;;;;;;;;;;;11.40;99.90;;;;;;5080999;28;20052;-66
2022/09/26 12:33:52;;;;;;;5.18;4.68;;;11.40;99.90;;;;;;5079619;28;19926;-65
2022/09/26 12:36:20;;;;;;;6.93;5.30;;;11.50;99.90;;;;;;5079481;28;20108;-65
2022/09/26 12:38:58;;;;;;;4.72;4.10;;;11.40;99.90;;;;;;5080532;28;20588;-65
2022/09/26 12:41:55;;;;;;;6.05;5.45;;;11.40;99.90;;;;;;5079628;28;20322;-66
2022/09/26 12:44:51;;;;;;;6.22;5.63;;;11.70;99.90;;;;;;5079692;28;20330;-65
2022/09/26 12:47:29;;;;;;;7.30;5.30;;;11.40;99.90;;;;;;5080189;28;20040;-65
2022/09/26 12:50:14;;;;;;;5.28;4.82;;;11.70;99.90;;;;;;5080263;28;20093;-65
2022/09/26 12:52:39;;;;;;;5.63;5.03;;;11.80;99.90;;;;;;5080219;28;20270;-65
2022/09/26 12:55:33;;;;;;;7.82;5.38;;;11.70;99.90;;;;;;5062627;28;20229;-65
2022/09/26 12:57:59;;;;;;;;;;;11.60;99.90;;;;;;5063008;28;20083;-65
2022/09/26 13:00:29;;;;;;;6.35;4.60;;;11.60;99.90;;;;;;5079946;28;19928;-65
2022/09/26 13:03:31;;;;;;;6.50;4.85;;;11.90;99.90;;;;;;5080421;28;20032;-65
2022/09/26 13:06:26;;;;;;;5.32;4.15;;;11.70;99.90;;;;;;5079921;28;20172;-65
2022/09/26 13:09:14;;;;;;;5.47;4.28;;;11.90;99.90;;;;;;5079467;28;20044;-65
2022/09/26 13:11:46;;;;;;;4.30;3.95;;;12.00;99.90;;;;;;5080546;28;20074;-65
2022/09/26 13:14:41;;;;;;;3.78;3.42;;;12.10;99.90;;;;;;5063799;28;20031;-65
2022/09/26 13:17:13;;;;;;;6.03;3.88;;;12.10;99.90;;;;;;5079411;28;20051;-65
2022/09/26 13:20:13;;;;;;;4.75;3.92;;;12.00;99.90;;;;;;5063674;28;20557;-67
2022/09/26 13:23:05;;;;;;;5.30;3.90;;;12.10;99.90;;;;;;5088567;28;20059;-65
2022/09/26 13:25:46;;;;;;;4.22;3.55;;;12.30;99.90;;;;;;5046473;28;20321;-67
2022/09/26 13:28:19;;;;;;;3.97;2.75;;;12.20;99.90;;;;;;5079733;28;20044;-65
2022/09/26 13:31:00;;;;;;;3.30;3.00;;;12.30;99.90;;;;;;5080650;28;20048;-66
2022/09/26 13:33:34;;;;;;;3.42;2.80;;;12.50;99.90;;;;;;5062809;28;20440;-66
2022/09/26 13:36:02;;;;;;;3.80;2.75;;;12.40;99.90;;;;;;5079194;28;20056;-65